sensor_id;sensor_type;location;lat;lon;timestamp;temperature;humidity
20380;DHT22;10349;48.666;8.948;2023-06-14T00:00:22;13.60;99.90
20380;DHT22;10349;48.666;8.948;2023-06-14T00:02:48;13.60;99.90
20380;DHT22;10349;48.666;8.948;2023-06-14T00:05:14;13.60;99.90
20380;DHT22;10349;48.666;8.948;2023-06-14T00:07:42;13.60;99.90
20380;DHT22;10349;48.666;8.948;2023-06-14T00:10:09;13.50;99.90
20380;DHT22;10349;48.666;8.948;2023-06-14T00:12:35;13.50;99.90
20380;DHT22;10349;48.666;8.948;2023-06-14T00:15:02;13.60;99.90
20380;DHT22;10349;48.666;8.948;2023-06-14T00:17:29;13.50;99.90
20380;DHT22;10349;48.666;8.948;2023-06-14T00:19:57;13.40;99.90
20380;DHT22;10349;48.666;8.948;2023-06-14T00:22:24;13.40;99.90
20380;DHT22;10349;48.666;8.948;2023-06-14T00:24:51;13.20;99.90
20380;DHT22;10349;48.666;8.948;2023-06-14T00:27:16;12.80;99.90
20380;DHT22;10349;48.666;8.948;2023-06-14T00:29:43;12.60;99.90
20380;DHT22;10349;48.666;8.948;2023-06-14T00:32:09;12.50;99.90
20380;DHT22;10349;48.666;8.948;2023-06-14T00:34:35;12.50;99.90
20380;DHT22;10349;48.666;8.948;2023-06-14T00:37:01;12.60;99.90
20380;DHT22;10349;48.666;8.948;2023-06-14T00:39:27;12.60;99.90
20380;DHT22;10349;48.666;8.948;2023-06-14T00:41:53;12.60;99.90
20380;DHT22;10349;48.666;8.948;2023-06-14T00:44:22;12.60;99.90
20380;DHT22;10349;48.666;8.948;2023-06-14T00:46:50;12.60;99.90
20380;DHT22;10349;48.666;8.948;2023-06-14T00:49:17;12.70;99.90
20380;DHT22;10349;48.666;8.948;2023-06-14T00:51:43;12.70;99.90
20380;DHT22;10349;48.666;8.948;2023-06-14T00:54:10;12.80;99.90
20380;DHT22;10349;48.666;8.948;2023-06-14T00:56:38;12.80;99.90
20380;DHT22;10349;48.666;8.948;2023-06-14T00:59:04;12.80;99.90
20380;DHT22;10349;48.666;8.948;2023-06-14T01:01:30;12.90;99.90
20380;DHT22;10349;48.666;8.948;2023-06-14T01:04:01;12.90;99.90
20380;DHT22;10349;48.666;8.948;2023-06-14T01:06:49;12.80;99.90
20380;DHT22;10349;48.666;8.948;2023-06-14T01:09:35;12.80;99.90
20380;DHT22;10349;48.666;8.948;2023-06-14T01:12:28;12.80;99.90
20380;DHT22;10349;48.666;8.948;2023-06-14T01:14:57;12.80;99.90
20380;DHT22;10349;48.666;8.948;2023-06-14T01:17:26;12.80;99.90
20380;DHT22;10349;48.666;8.948;2023-06-14T01:19:52;12.70;99.90
20380;DHT22;10349;48.666;8.948;2023-06-14T01:22:27;12.70;99.90
20380;DHT22;10349;48.666;8.948;2023-06-14T01:24:54;12.70;99.90
20380;DHT22;10349;48.666;8.948;2023-06-14T01:27:24;12.70;99.90
20380;DHT22;10349;48.666;8.948;2023-06-14T01:29:55;12.60;99.90
20380;DHT22;10349;48.666;8.948;2023-06-14T01:32:26;12.50;99.90
20380;DHT22;10349;48.666;8.948;2023-06-14T01:34:53;12.50;99.90
20380;DHT22;10349;48.666;8.948;2023-06-14T01:37:20;12.60;99.90
20380;DHT22;10349;48.666;8.948;2023-06-14T01:39:48;12.50;99.90
20380;DHT22;10349;48.666;8.948;2023-06-14T01:42:19;12.30;99.90
20380;DHT22;10349;48.666;8.948;2023-06-14T01:44:46;12.10;99.90
20380;DHT22;10349;48.666;8.948;2023-06-14T01:47:14;12.00;99.90
20380;DHT22;10349;48.666;8.948;2023-06-14T01:49:41;12.00;99.90
20380;DHT22;10349;48.666;8.948;2023-06-14T01:52:08;11.90;99.90
20380;DHT22;10349;48.666;8.948;2023-06-14T01:54:37;11.60;99.90
20380;DHT22;10349;48.666;8.948;2023-06-14T01:57:08;11.60;99.90
20380;DHT22;10349;48.666;8.948;2023-06-14T01:59:33;11.40;99.90
20380;DHT22;10349;48.666;8.948;2023-06-14T02:02:02;11.40;99.90
20380;DHT22;10349;48.666;8.948;2023-06-14T02:04:31;11.50;99.90
20380;DHT22;10349;48.666;8.948;2023-06-14T02:06:58;11.50;99.90
20380;DHT22;10349;48.666;8.948;2023-06-14T02:09:24;11.50;99.90
20380;DHT22;10349;48.666;8.948;2023-06-14T02:11:53;11.50;99.90
20380;DHT22;10349;48.666;8.948;2023-06-14T02:14:20;11.50;99.90
20380;DHT22;10349;48.666;8.948;2023-06-14T02:16:46;11.60;99.90
20380;DHT22;10349;48.666;8.948;2023-06-14T02:19:19;11.60;99.90
20380;DHT22;10349;48.666;8.948;2023-06-14T02:21:47;11.60;99.90
20380;DHT22;10349;48.666;8.948;2023-06-14T02:24:13;11.30;99.90
20380;DHT22;10349;48.666;8.948;2023-06-14T02:26:39;11.20;99.90
20380;DHT22;10349;48.666;8.948;2023-06-14T02:29:09;11.10;99.90
20380;DHT22;10349;48.666;8.948;2023-06-14T02:31:38;11.10;99.90
20380;DHT22;10349;48.666;8.948;2023-06-14T02:34:04;11.10;99.90
20380;DHT22;10349;48.666;8.948;2023-06-14T02:36:30;11.10;99.90
20380;DHT22;10349;48.666;8.948;2023-06-14T02:38:56;11.20;99.90
20380;DHT22;10349;48.666;8.948;2023-06-14T02:41:25;11.30;99.90
20380;DHT22;10349;48.666;8.948;2023-06-14T02:43:53;11.30;99.90
20380;DHT22;10349;48.666;8.948;2023-06-14T02:46:19;11.30;99.90
20380;DHT22;10349;48.666;8.948;2023-06-14T02:48:44;11.30;99.90
20380;DHT22;10349;48.666;8.948;2023-06-14T02:51:11;11.20;99.90
20380;DHT22;10349;48.666;8.948;2023-06-14T02:53:40;11.20;99.90
20380;DHT22;10349;48.666;8.948;2023-06-14T02:56:06;11.20;99.90
20380;DHT22;10349;48.666;8.948;2023-06-14T02:58:32;11.20;99.90
20380;DHT22;10349;48.666;8.948;2023-06-14T03:00:59;11.20;99.90
20380;DHT22;10349;48.666;8.948;2023-06-14T03:03:29;11.10;99.90
20380;DHT22;10349;48.666;8.948;2023-06-14T03:05:55;11.00;99.90
20380;DHT22;10349;48.666;8.948;2023-06-14T03:08:25;11.00;99.90
20380;DHT22;10349;48.666;8.948;2023-06-14T03:10:58;11.00;99.90
20380;DHT22;10349;48.666;8.948;2023-06-14T03:13:26;11.00;99.90
20380;DHT22;10349;48.666;8.948;2023-06-14T03:15:54;11.00;99.90
20380;DHT22;10349;48.666;8.948;2023-06-14T03:18:22;10.90;99.90
20380;DHT22;10349;48.666;8.948;2023-06-14T03:20:50;10.90;99.90
20380;DHT22;10349;48.666;8.948;2023-06-14T03:23:17;10.80;99.90
20380;DHT22;10349;48.666;8.948;2023-06-14T03:25:43;10.80;99.90
20380;DHT22;10349;48.666;8.948;2023-06-14T03:28:12;10.80;99.90
20380;DHT22;10349;48.666;8.948;2023-06-14T03:30:38;10.80;99.90
20380;DHT22;10349;48.666;8.948;2023-06-14T03:33:04;10.80;99.90
20380;DHT22;10349;48.666;8.948;2023-06-14T03:35:30;10.80;99.90
20380;DHT22;10349;48.666;8.948;2023-06-14T03:37:56;10.80;99.90
20380;DHT22;10349;48.666;8.948;2023-06-14T03:40:22;10.70;99.90
20380;DHT22;10349;48.666;8.948;2023-06-14T03:42:56;10.60;99.90
20380;DHT22;10349;48.666;8.948;2023-06-14T03:45:22;10.60;99.90
20380;DHT22;10349;48.666;8.948;2023-06-14T03:47:48;10.50;99.90
20380;DHT22;10349;48.666;8.948;2023-06-14T03:50:14;10.50;99.90
20380;DHT22;10349;48.666;8.948;2023-06-14T03:52:40;10.50;99.90
20380;DHT22;10349;48.666;8.948;2023-06-14T03:55:10;10.50;99.90
20380;DHT22;10349;48.666;8.948;2023-06-14T03:57:39;10.50;99.90
20380;DHT22;10349;48.666;8.948;2023-06-14T04:00:09;10.50;99.90
20380;DHT22;10349;48.666;8.948;2023-06-14T04:02:40;10.40;99.90
20380;DHT22;10349;48.666;8.948;2023-06-14T04:05:07;10.30;99.90
20380;DHT22;10349;48.666;8.948;2023-06-14T04:07:36;10.30;99.90
20380;DHT22;10349;48.666;8.948;2023-06-14T04:10:08;10.30;99.90
20380;DHT22;10349;48.666;8.948;2023-06-14T04:12:35;10.40;99.90
20380;DHT22;10349;48.666;8.948;2023-06-14T04:15:01;10.40;99.90
20380;DHT22;10349;48.666;8.948;2023-06-14T04:17:30;10.50;99.90
20380;DHT22;10349;48.666;8.948;2023-06-14T04:19:58;10.50;99.90
20380;DHT22;10349;48.666;8.948;2023-06-14T04:22:26;10.50;99.90
20380;DHT22;10349;48.666;8.948;2023-06-14T04:24:57;10.50;99.90
20380;DHT22;10349;48.666;8.948;2023-06-14T04:27:28;10.60;99.90
20380;DHT22;10349;48.666;8.948;2023-06-14T04:29:58;10.90;99.90
20380;DHT22;10349;48.666;8.948;2023-06-14T04:32:30;11.50;99.90
20380;DHT22;10349;48.666;8.948;2023-06-14T04:35:00;12.00;99.90
20380;DHT22;10349;48.666;8.948;2023-06-14T04:37:29;12.40;99.90
20380;DHT22;10349;48.666;8.948;2023-06-14T04:39:57;12.90;99.90
20380;DHT22;10349;48.666;8.948;2023-06-14T04:42:23;13.40;99.90
20380;DHT22;10349;48.666;8.948;2023-06-14T04:44:57;13.90;99.90
20380;DHT22;10349;48.666;8.948;2023-06-14T04:47:23;14.10;99.90
20380;DHT22;10349;48.666;8.948;2023-06-14T04:49:57;14.40;99.90
20380;DHT22;10349;48.666;8.948;2023-06-14T04:52:23;14.60;99.90
20380;DHT22;10349;48.666;8.948;2023-06-14T04:54:52;15.00;99.90
20380;DHT22;10349;48.666;8.948;2023-06-14T04:57:20;15.40;99.90
20380;DHT22;10349;48.666;8.948;2023-06-14T04:59:48;16.00;99.90
20380;DHT22;10349;48.666;8.948;2023-06-14T05:02:24;16.50;99.90
20380;DHT22;10349;48.666;8.948;2023-06-14T05:04:51;17.10;99.90
20380;DHT22;10349;48.666;8.948;2023-06-14T05:07:18;17.60;99.90
20380;DHT22;10349;48.666;8.948;2023-06-14T05:09:44;18.10;99.90
20380;DHT22;10349;48.666;8.948;2023-06-14T05:12:10;18.60;99.90
20380;DHT22;10349;48.666;8.948;2023-06-14T05:14:36;18.90;99.90
20380;DHT22;10349;48.666;8.948;2023-06-14T05:17:03;19.40;99.90
20380;DHT22;10349;48.666;8.948;2023-06-14T05:19:29;19.70;99.90
20380;DHT22;10349;48.666;8.948;2023-06-14T05:21:55;19.80;99.90
20380;DHT22;10349;48.666;8.948;2023-06-14T05:24:20;20.00;99.90
20380;DHT22;10349;48.666;8.948;2023-06-14T05:26:46;20.20;99.90
20380;DHT22;10349;48.666;8.948;2023-06-14T05:29:12;20.50;99.90
20380;DHT22;10349;48.666;8.948;2023-06-14T05:31:38;20.90;99.90
20380;DHT22;10349;48.666;8.948;2023-06-14T05:34:04;21.10;99.90
20380;DHT22;10349;48.666;8.948;2023-06-14T05:36:30;21.50;99.90
20380;DHT22;10349;48.666;8.948;2023-06-14T05:38:55;21.30;99.90
20380;DHT22;10349;48.666;8.948;2023-06-14T05:41:26;21.10;99.90
20380;DHT22;10349;48.666;8.948;2023-06-14T05:43:53;21.00;99.90
20380;DHT22;10349;48.666;8.948;2023-06-14T05:46:19;21.20;99.90
20380;DHT22;10349;48.666;8.948;2023-06-14T05:48:51;21.20;99.90
20380;DHT22;10349;48.666;8.948;2023-06-14T05:51:17;20.70;99.90
20380;DHT22;10349;48.666;8.948;2023-06-14T05:53:48;20.40;99.90
20380;DHT22;10349;48.666;8.948;2023-06-14T05:56:15;20.40;99.90
20380;DHT22;10349;48.666;8.948;2023-06-14T05:58:41;20.30;99.90
20380;DHT22;10349;48.666;8.948;2023-06-14T06:01:06;20.50;99.90
20380;DHT22;10349;48.666;8.948;2023-06-14T06:03:32;20.50;99.90
20380;DHT22;10349;48.666;8.948;2023-06-14T06:05:58;20.80;99.90
20380;DHT22;10349;48.666;8.948;2023-06-14T06:08:24;21.10;99.90
20380;DHT22;10349;48.666;8.948;2023-06-14T06:10:49;21.30;99.90
20380;DHT22;10349;48.666;8.948;2023-06-14T06:13:15;21.50;99.90
20380;DHT22;10349;48.666;8.948;2023-06-14T06:15:41;21.40;99.90
20380;DHT22;10349;48.666;8.948;2023-06-14T06:18:07;21.20;99.90
20380;DHT22;10349;48.666;8.948;2023-06-14T06:20:32;21.30;99.90
20380;DHT22;10349;48.666;8.948;2023-06-14T06:22:58;21.50;99.90
20380;DHT22;10349;48.666;8.948;2023-06-14T06:25:25;21.70;99.90
20380;DHT22;10349;48.666;8.948;2023-06-14T06:27:52;21.70;99.90
20380;DHT22;10349;48.666;8.948;2023-06-14T06:30:19;21.20;99.90
20380;DHT22;10349;48.666;8.948;2023-06-14T06:32:45;21.10;99.90
20380;DHT22;10349;48.666;8.948;2023-06-14T06:35:11;21.10;99.90
20380;DHT22;10349;48.666;8.948;2023-06-14T06:37:39;21.40;99.90
20380;DHT22;10349;48.666;8.948;2023-06-14T06:40:05;21.70;99.90
20380;DHT22;10349;48.666;8.948;2023-06-14T06:42:31;21.60;99.90
20380;DHT22;10349;48.666;8.948;2023-06-14T06:45:02;21.70;99.90
20380;DHT22;10349;48.666;8.948;2023-06-14T06:47:27;21.90;99.90
20380;DHT22;10349;48.666;8.948;2023-06-14T06:49:53;22.00;99.90
20380;DHT22;10349;48.666;8.948;2023-06-14T06:52:19;22.10;99.90
20380;DHT22;10349;48.666;8.948;2023-06-14T06:54:45;21.90;99.90
20380;DHT22;10349;48.666;8.948;2023-06-14T06:57:10;21.90;99.90
20380;DHT22;10349;48.666;8.948;2023-06-14T06:59:36;21.90;99.90
20380;DHT22;10349;48.666;8.948;2023-06-14T07:02:03;21.90;99.90
20380;DHT22;10349;48.666;8.948;2023-06-14T07:04:29;21.70;99.90
20380;DHT22;10349;48.666;8.948;2023-06-14T07:06:55;21.30;99.90
20380;DHT22;10349;48.666;8.948;2023-06-14T07:09:21;21.20;99.90
20380;DHT22;10349;48.666;8.948;2023-06-14T07:11:47;21.10;99.90
20380;DHT22;10349;48.666;8.948;2023-06-14T07:14:12;20.90;99.90
20380;DHT22;10349;48.666;8.948;2023-06-14T07:16:38;21.00;99.90
20380;DHT22;10349;48.666;8.948;2023-06-14T07:19:04;21.30;99.90
20380;DHT22;10349;48.666;8.948;2023-06-14T07:21:30;21.60;99.90
20380;DHT22;10349;48.666;8.948;2023-06-14T07:23:56;21.90;99.90
20380;DHT22;10349;48.666;8.948;2023-06-14T07:26:22;21.90;99.90
20380;DHT22;10349;48.666;8.948;2023-06-14T07:28:48;21.80;99.90
20380;DHT22;10349;48.666;8.948;2023-06-14T07:31:17;21.70;99.90
20380;DHT22;10349;48.666;8.948;2023-06-14T07:33:45;21.40;99.90
20380;DHT22;10349;48.666;8.948;2023-06-14T07:36:11;21.10;99.90
20380;DHT22;10349;48.666;8.948;2023-06-14T07:38:36;20.90;99.90
20380;DHT22;10349;48.666;8.948;2023-06-14T07:41:02;20.80;99.90
20380;DHT22;10349;48.666;8.948;2023-06-14T07:43:29;20.90;99.90
20380;DHT22;10349;48.666;8.948;2023-06-14T07:45:54;21.10;99.90
20380;DHT22;10349;48.666;8.948;2023-06-14T07:48:20;21.20;99.90
20380;DHT22;10349;48.666;8.948;2023-06-14T07:50:46;21.30;99.90
20380;DHT22;10349;48.666;8.948;2023-06-14T07:53:12;21.10;99.90
20380;DHT22;10349;48.666;8.948;2023-06-14T07:55:37;21.00;99.90
20380;DHT22;10349;48.666;8.948;2023-06-14T07:58:04;21.10;99.90
20380;DHT22;10349;48.666;8.948;2023-06-14T08:00:30;21.10;99.90
20380;DHT22;10349;48.666;8.948;2023-06-14T08:02:56;21.20;99.90
20380;DHT22;10349;48.666;8.948;2023-06-14T08:05:27;21.20;99.90
20380;DHT22;10349;48.666;8.948;2023-06-14T08:07:53;21.10;99.90
20380;DHT22;10349;48.666;8.948;2023-06-14T08:10:19;20.90;99.90
20380;DHT22;10349;48.666;8.948;2023-06-14T08:12:45;21.20;99.90
20380;DHT22;10349;48.666;8.948;2023-06-14T08:15:11;21.30;99.90
20380;DHT22;10349;48.666;8.948;2023-06-14T08:17:37;21.40;99.90
20380;DHT22;10349;48.666;8.948;2023-06-14T08:20:03;21.30;99.90
20380;DHT22;10349;48.666;8.948;2023-06-14T08:22:32;21.30;99.90
20380;DHT22;10349;48.666;8.948;2023-06-14T08:25:01;21.10;99.90
20380;DHT22;10349;48.666;8.948;2023-06-14T08:27:27;20.90;99.90
20380;DHT22;10349;48.666;8.948;2023-06-14T08:29:53;21.00;99.90
20380;DHT22;10349;48.666;8.948;2023-06-14T08:32:19;21.20;99.90
20380;DHT22;10349;48.666;8.948;2023-06-14T08:34:45;21.30;99.90
20380;DHT22;10349;48.666;8.948;2023-06-14T08:37:10;21.40;99.90
20380;DHT22;10349;48.666;8.948;2023-06-14T08:39:36;21.40;99.90
20380;DHT22;10349;48.666;8.948;2023-06-14T08:42:03;21.50;99.90
20380;DHT22;10349;48.666;8.948;2023-06-14T08:44:30;21.50;99.90
20380;DHT22;10349;48.666;8.948;2023-06-14T08:46:56;21.70;99.90
20380;DHT22;10349;48.666;8.948;2023-06-14T08:49:23;21.90;99.90
20380;DHT22;10349;48.666;8.948;2023-06-14T08:52:00;22.00;99.90
20380;DHT22;10349;48.666;8.948;2023-06-14T08:54:29;22.00;99.90
20380;DHT22;10349;48.666;8.948;2023-06-14T08:57:02;21.80;99.90
20380;DHT22;10349;48.666;8.948;2023-06-14T08:59:32;21.90;99.90
20380;DHT22;10349;48.666;8.948;2023-06-14T09:02:05;21.70;99.90
20380;DHT22;10349;48.666;8.948;2023-06-14T09:04:31;21.60;99.90
20380;DHT22;10349;48.666;8.948;2023-06-14T09:06:57;21.60;99.90
20380;DHT22;10349;48.666;8.948;2023-06-14T09:09:24;21.50;99.90
20380;DHT22;10349;48.666;8.948;2023-06-14T09:11:51;21.70;99.90
20380;DHT22;10349;48.666;8.948;2023-06-14T09:14:18;22.00;99.90
20380;DHT22;10349;48.666;8.948;2023-06-14T09:16:44;22.10;99.90
20380;DHT22;10349;48.666;8.948;2023-06-14T09:19:31;22.10;99.90
20380;DHT22;10349;48.666;8.948;2023-06-14T09:21:56;22.30;99.90
20380;DHT22;10349;48.666;8.948;2023-06-14T09:24:24;22.30;99.90
20380;DHT22;10349;48.666;8.948;2023-06-14T09:26:51;22.50;99.90
20380;DHT22;10349;48.666;8.948;2023-06-14T09:29:17;22.60;99.90
20380;DHT22;10349;48.666;8.948;2023-06-14T09:31:45;22.70;99.90
20380;DHT22;10349;48.666;8.948;2023-06-14T09:34:11;22.70;99.90
20380;DHT22;10349;48.666;8.948;2023-06-14T09:36:39;22.80;99.90
20380;DHT22;10349;48.666;8.948;2023-06-14T09:39:05;23.10;99.90
20380;DHT22;10349;48.666;8.948;2023-06-14T09:41:36;23.30;99.90
20380;DHT22;10349;48.666;8.948;2023-06-14T09:44:03;23.50;99.90
20380;DHT22;10349;48.666;8.948;2023-06-14T09:46:30;23.20;99.70
20380;DHT22;10349;48.666;8.948;2023-06-14T09:49:00;23.10;99.90
20380;DHT22;10349;48.666;8.948;2023-06-14T09:51:27;22.90;99.90
20380;DHT22;10349;48.666;8.948;2023-06-14T09:53:55;23.10;99.90
20380;DHT22;10349;48.666;8.948;2023-06-14T09:56:40;23.00;99.90
20380;DHT22;10349;48.666;8.948;2023-06-14T09:59:10;22.90;99.90
20380;DHT22;10349;48.666;8.948;2023-06-14T10:01:41;22.90;99.70
20380;DHT22;10349;48.666;8.948;2023-06-14T10:04:09;23.10;99.90
20380;DHT22;10349;48.666;8.948;2023-06-14T10:06:40;23.30;99.90
20380;DHT22;10349;48.666;8.948;2023-06-14T10:09:09;23.10;98.40
20380;DHT22;10349;48.666;8.948;2023-06-14T10:11:36;22.80;98.90
20380;DHT22;10349;48.666;8.948;2023-06-14T10:14:05;22.40;99.20
20380;DHT22;10349;48.666;8.948;2023-06-14T10:19:25;22.30;99.90
20380;DHT22;10349;48.666;8.948;2023-06-14T10:22:19;22.30;99.90
20380;DHT22;10349;48.666;8.948;2023-06-14T10:24:48;22.40;99.90
20380;DHT22;10349;48.666;8.948;2023-06-14T10:27:16;22.30;99.90
20380;DHT22;10349;48.666;8.948;2023-06-14T10:32:25;21.40;99.50
20380;DHT22;10349;48.666;8.948;2023-06-14T10:37:21;21.50;99.60
20380;DHT22;10349;48.666;8.948;2023-06-14T10:39:47;21.80;99.90
20380;DHT22;10349;48.666;8.948;2023-06-14T10:42:14;22.40;98.70
20380;DHT22;10349;48.666;8.948;2023-06-14T10:44:54;22.80;98.80
20380;DHT22;10349;48.666;8.948;2023-06-14T10:47:22;23.10;99.90
20380;DHT22;10349;48.666;8.948;2023-06-14T10:49:52;23.30;98.50
20380;DHT22;10349;48.666;8.948;2023-06-14T10:52:22;23.10;98.40
20380;DHT22;10349;48.666;8.948;2023-06-14T10:55:13;23.10;98.60
20380;DHT22;10349;48.666;8.948;2023-06-14T10:57:43;23.10;98.30
20380;DHT22;10349;48.666;8.948;2023-06-14T11:00:12;23.20;97.00
20380;DHT22;10349;48.666;8.948;2023-06-14T11:05:26;23.70;97.50
20380;DHT22;10349;48.666;8.948;2023-06-14T11:10:54;24.00;97.00
20380;DHT22;10349;48.666;8.948;2023-06-14T11:13:25;24.40;97.50
20380;DHT22;10349;48.666;8.948;2023-06-14T11:15:50;24.30;96.40
20380;DHT22;10349;48.666;8.948;2023-06-14T11:18:18;24.10;96.50
20380;DHT22;10349;48.666;8.948;2023-06-14T11:20:46;23.80;96.30
20380;DHT22;10349;48.666;8.948;2023-06-14T11:23:12;23.80;98.50
20380;DHT22;10349;48.666;8.948;2023-06-14T11:25:37;24.00;97.90
20380;DHT22;10349;48.666;8.948;2023-06-14T11:28:03;24.00;97.60
20380;DHT22;10349;48.666;8.948;2023-06-14T11:30:29;24.10;97.70
20380;DHT22;10349;48.666;8.948;2023-06-14T11:32:57;24.20;97.90
20380;DHT22;10349;48.666;8.948;2023-06-14T11:35:23;24.20;97.90
20380;DHT22;10349;48.666;8.948;2023-06-14T11:37:52;24.20;97.90
20380;DHT22;10349;48.666;8.948;2023-06-14T11:40:18;24.10;97.00
20380;DHT22;10349;48.666;8.948;2023-06-14T11:42:44;24.10;96.80
20380;DHT22;10349;48.666;8.948;2023-06-14T11:45:10;24.10;97.60
20380;DHT22;10349;48.666;8.948;2023-06-14T11:47:37;23.80;97.60
20380;DHT22;10349;48.666;8.948;2023-06-14T11:50:04;23.80;97.70
20380;DHT22;10349;48.666;8.948;2023-06-14T11:52:31;23.60;98.50
20380;DHT22;10349;48.666;8.948;2023-06-14T11:54:57;23.40;98.20
20380;DHT22;10349;48.666;8.948;2023-06-14T11:57:25;23.30;98.60
20380;DHT22;10349;48.666;8.948;2023-06-14T11:59:51;23.20;99.00
20380;DHT22;10349;48.666;8.948;2023-06-14T12:02:18;23.40;98.90
20380;DHT22;10349;48.666;8.948;2023-06-14T12:04:44;23.70;98.80
20380;DHT22;10349;48.666;8.948;2023-06-14T12:07:13;23.70;97.70
20380;DHT22;10349;48.666;8.948;2023-06-14T12:12:24;24.00;97.60
20380;DHT22;10349;48.666;8.948;2023-06-14T12:14:51;24.30;97.50
20380;DHT22;10349;48.666;8.948;2023-06-14T12:17:18;24.10;97.70
20380;DHT22;10349;48.666;8.948;2023-06-14T12:19:45;23.90;98.10
20380;DHT22;10349;48.666;8.948;2023-06-14T12:22:14;23.90;98.30
20380;DHT22;10349;48.666;8.948;2023-06-14T12:24:43;23.70;97.50
20380;DHT22;10349;48.666;8.948;2023-06-14T12:27:12;23.60;97.70
20380;DHT22;10349;48.666;8.948;2023-06-14T12:29:43;23.50;97.60
20380;DHT22;10349;48.666;8.948;2023-06-14T12:32:18;23.60;98.80
20380;DHT22;10349;48.666;8.948;2023-06-14T12:34:44;23.80;98.50
20380;DHT22;10349;48.666;8.948;2023-06-14T12:37:10;23.90;98.70
20380;DHT22;10349;48.666;8.948;2023-06-14T12:39:36;24.00;98.30
20380;DHT22;10349;48.666;8.948;2023-06-14T12:42:05;24.00;98.30
20380;DHT22;10349;48.666;8.948;2023-06-14T12:44:31;24.00;98.40
20380;DHT22;10349;48.666;8.948;2023-06-14T12:47:00;24.10;97.60
20380;DHT22;10349;48.666;8.948;2023-06-14T12:49:29;23.80;97.40
20380;DHT22;10349;48.666;8.948;2023-06-14T12:51:55;24.00;97.80
20380;DHT22;10349;48.666;8.948;2023-06-14T12:54:21;24.30;97.60
20380;DHT22;10349;48.666;8.948;2023-06-14T12:56:51;24.20;97.30
20380;DHT22;10349;48.666;8.948;2023-06-14T12:59:17;24.10;97.20
20380;DHT22;10349;48.666;8.948;2023-06-14T13:01:43;24.20;97.70
20380;DHT22;10349;48.666;8.948;2023-06-14T13:04:10;24.10;97.90
20380;DHT22;10349;48.666;8.948;2023-06-14T13:06:36;24.20;97.70
20380;DHT22;10349;48.666;8.948;2023-06-14T13:09:02;24.20;97.70
20380;DHT22;10349;48.666;8.948;2023-06-14T13:11:29;24.30;97.60
20380;DHT22;10349;48.666;8.948;2023-06-14T13:13:55;24.30;97.50
20380;DHT22;10349;48.666;8.948;2023-06-14T13:16:23;24.20;98.60
20380;DHT22;10349;48.666;8.948;2023-06-14T13:18:48;24.10;98.00
20380;DHT22;10349;48.666;8.948;2023-06-14T13:21:14;24.00;97.00
20380;DHT22;10349;48.666;8.948;2023-06-14T13:23:40;23.60;97.30
20380;DHT22;10349;48.666;8.948;2023-06-14T13:26:09;23.70;97.50
20380;DHT22;10349;48.666;8.948;2023-06-14T13:28:38;24.00;97.70
20380;DHT22;10349;48.666;8.948;2023-06-14T13:31:04;24.20;98.20
20380;DHT22;10349;48.666;8.948;2023-06-14T13:33:30;24.20;98.00
20380;DHT22;10349;48.666;8.948;2023-06-14T13:35:57;24.20;97.50
20380;DHT22;10349;48.666;8.948;2023-06-14T13:38:23;24.00;98.10
20380;DHT22;10349;48.666;8.948;2023-06-14T13:40:49;23.80;97.30
20380;DHT22;10349;48.666;8.948;2023-06-14T13:43:15;23.90;97.00
20380;DHT22;10349;48.666;8.948;2023-06-14T13:45:41;23.80;96.90
20380;DHT22;10349;48.666;8.948;2023-06-14T13:48:08;23.70;97.80
20380;DHT22;10349;48.666;8.948;2023-06-14T13:50:34;23.90;97.70
20380;DHT22;10349;48.666;8.948;2023-06-14T13:53:00;23.90;97.00
20380;DHT22;10349;48.666;8.948;2023-06-14T13:55:26;24.00;97.80
20380;DHT22;10349;48.666;8.948;2023-06-14T13:57:52;24.00;97.40
20380;DHT22;10349;48.666;8.948;2023-06-14T14:00:19;24.00;97.60
20380;DHT22;10349;48.666;8.948;2023-06-14T14:02:47;24.00;96.80
20380;DHT22;10349;48.666;8.948;2023-06-14T14:05:21;23.80;97.10
20380;DHT22;10349;48.666;8.948;2023-06-14T14:07:52;23.80;97.60
20380;DHT22;10349;48.666;8.948;2023-06-14T14:10:21;23.90;97.60
20380;DHT22;10349;48.666;8.948;2023-06-14T14:12:49;23.80;96.80
20380;DHT22;10349;48.666;8.948;2023-06-14T14:15:14;23.80;96.50
20380;DHT22;10349;48.666;8.948;2023-06-14T14:17:42;23.70;96.70
20380;DHT22;10349;48.666;8.948;2023-06-14T14:20:08;23.80;96.70
20380;DHT22;10349;48.666;8.948;2023-06-14T14:22:34;23.70;96.10
20380;DHT22;10349;48.666;8.948;2023-06-14T14:25:00;23.80;96.50
20380;DHT22;10349;48.666;8.948;2023-06-14T14:27:26;23.80;96.20
20380;DHT22;10349;48.666;8.948;2023-06-14T14:29:52;23.80;96.10
20380;DHT22;10349;48.666;8.948;2023-06-14T14:32:18;23.80;96.30
20380;DHT22;10349;48.666;8.948;2023-06-14T14:34:46;23.90;97.30
20380;DHT22;10349;48.666;8.948;2023-06-14T14:37:12;23.90;97.10
20380;DHT22;10349;48.666;8.948;2023-06-14T14:39:38;24.00;97.10
20380;DHT22;10349;48.666;8.948;2023-06-14T14:42:14;24.30;96.60
20380;DHT22;10349;48.666;8.948;2023-06-14T14:44:54;24.50;97.00
20380;DHT22;10349;48.666;8.948;2023-06-14T14:47:20;24.40;96.40
20380;DHT22;10349;48.666;8.948;2023-06-14T14:49:49;24.30;96.40
20380;DHT22;10349;48.666;8.948;2023-06-14T14:52:15;24.40;96.80
20380;DHT22;10349;48.666;8.948;2023-06-14T14:54:40;24.50;96.20
20380;DHT22;10349;48.666;8.948;2023-06-14T14:57:06;24.30;97.00
20380;DHT22;10349;48.666;8.948;2023-06-14T14:59:32;24.30;96.40
20380;DHT22;10349;48.666;8.948;2023-06-14T15:01:58;24.10;96.90
20380;DHT22;10349;48.666;8.948;2023-06-14T15:04:24;24.10;97.40
20380;DHT22;10349;48.666;8.948;2023-06-14T15:06:49;24.20;97.20
20380;DHT22;10349;48.666;8.948;2023-06-14T15:09:15;24.10;96.30
20380;DHT22;10349;48.666;8.948;2023-06-14T15:11:41;24.00;96.40
20380;DHT22;10349;48.666;8.948;2023-06-14T15:14:11;24.00;96.90
20380;DHT22;10349;48.666;8.948;2023-06-14T15:16:37;24.00;96.10
20380;DHT22;10349;48.666;8.948;2023-06-14T15:19:04;23.90;95.90
20380;DHT22;10349;48.666;8.948;2023-06-14T15:21:30;23.80;95.70
20380;DHT22;10349;48.666;8.948;2023-06-14T15:23:56;23.80;95.50
20380;DHT22;10349;48.666;8.948;2023-06-14T15:26:24;23.80;95.50
20380;DHT22;10349;48.666;8.948;2023-06-14T15:28:51;24.00;96.50
20380;DHT22;10349;48.666;8.948;2023-06-14T15:31:17;24.00;97.50
20380;DHT22;10349;48.666;8.948;2023-06-14T15:33:43;24.00;97.20
20380;DHT22;10349;48.666;8.948;2023-06-14T15:36:10;24.10;96.80
20380;DHT22;10349;48.666;8.948;2023-06-14T15:38:36;24.00;97.60
20380;DHT22;10349;48.666;8.948;2023-06-14T15:41:02;24.00;97.20
20380;DHT22;10349;48.666;8.948;2023-06-14T15:43:28;23.90;96.80
20380;DHT22;10349;48.666;8.948;2023-06-14T15:45:54;23.90;98.10
20380;DHT22;10349;48.666;8.948;2023-06-14T15:48:22;23.90;97.30